Itapiranga, Brazil
Current Conditions -  °F | °C
As of 10:00 AM on Sunday 23 Nov 2014 (Local Time) from SBMN Reporting Station
Scattered Clouds Scattered Clouds  
Wind Chill: 82°   Ceiling: Unl
Heat Index: 88°   Visibility: 6mi
Dew Point: 73°   Wind: 5mph
Humidity: 74%   Direction: 210°SSW
Pressure: 29.91"   Gusts: NA
Location:  2.75°S, 58.02°W
Report Text: SBMN 231400Z 21004KT 9999 SCT015 28/23 Q1013
Loading
Personal Weather Stations






























Interactive Weather Map New forecast layout! Learn more

10-Day Weather Forecast

Advertisements
Track Severe Weather on mobile